Time;durP1;ratioP1;P1;durP2;ratioP2;P2;SDS_P1;SDS_P2;PMS_P1;PMS_P2;Temp;Humidity;BMP_temperature;BMP_pressure;BME280_temperature;BME280_humidity;BME280_pressure;Samples;Min_cycle;Max_cycle;Signal;HPM_P1;HPM_P2
2022/05/23 00:01:19;;;;;;;4.70;2.25;;;;;;;-144.47;50.60;53267.25;5031549;28;20087;-74
2022/05/23 00:03:45;;;;;;;6.20;2.58;;;;;;;-144.47;50.98;53305.00;5031554;28;20692;-74
2022/05/23 00:06:18;;;;;;;5.78;1.95;;;;;;;-144.47;50.92;53281.16;5030998;28;20033;-72
2022/05/23 00:08:44;;;;;;;5.65;2.30;;;;;;;-144.47;51.25;53275.19;5031694;28;20083;-74
2022/05/23 00:11:09;;;;;;;5.60;2.38;;;;;;;-144.47;51.22;53318.91;5032056;28;20029;-74
2022/05/23 00:13:35;;;;;;;10.98;2.53;;;;;;;-144.47;51.52;53243.41;5031425;28;20144;-73
2022/05/23 00:16:02;;;;;;;6.47;2.47;;;;;;;-144.47;51.62;53301.03;5031544;28;20473;-71
2022/05/23 00:18:27;;;;;;;5.13;2.45;;;;;;;-144.47;51.29;53257.31;5031110;28;20029;-74
2022/05/23 00:20:52;;;;;;;7.80;2.47;;;;;;;-144.47;51.34;53312.94;5046426;28;20506;-74
2022/05/23 00:23:18;;;;;;;8.60;2.72;;;;;;;-144.47;51.37;53322.88;5031648;28;20036;-74
2022/05/23 00:25:43;;;;;;;9.35;2.85;;;;;;;-144.47;51.12;53279.16;5031126;28;20514;-74
2022/05/23 00:28:08;;;;;;;6.63;2.53;;;;;;;-144.47;51.26;53320.88;5031602;28;20148;-74
2022/05/23 00:30:33;;;;;;;6.32;2.40;;;;;;;-144.47;51.15;53289.09;5030024;28;20079;-72
2022/05/23 00:35:51;;;;;;;10.18;2.88;;;;;;;-144.47;50.97;53328.81;5031165;28;21337;-72
2022/05/23 00:38:16;;;;;;;11.13;2.28;;;;;;;-144.47;51.14;53301.03;5030485;28;20039;-74
2022/05/23 00:43:13;;;;;;;5.53;2.22;;;;;;;-144.47;51.11;53277.19;5022374;28;20025;-74
2022/05/23 00:43:41;;;;;;;6.60;2.28;;;;;;;-144.47;51.14;53301.03;5030681;28;20025;-73
2022/05/23 00:46:06;;;;;;;7.05;2.40;;;;;;;-144.47;51.25;53295.06;5030840;28;20027;-73
2022/05/23 00:48:32;;;;;;;7.60;2.80;;;;;;;-144.47;51.49;53314.91;5030589;28;20029;-73
2022/05/23 00:51:00;;;;;;;8.45;2.60;;;;;;;-144.47;51.45;53299.03;5030701;28;20025;-73
2022/05/23 00:53:33;;;;;;;7.18;2.42;;;;;;;-144.47;51.52;53293.06;5046382;22;20107;-68
2022/05/23 00:55:59;;;;;;;7.07;2.55;;;;;;;-144.47;51.76;53299.03;5039467;28;20017;-67
2022/05/23 00:58:30;;;;;;;5.90;2.63;;;;;;;-144.47;51.27;53293.06;5037390;28;20436;-68
2022/05/23 01:01:00;;;;;;;4.20;2.15;;;;;;;-144.47;51.16;53279.16;5041359;28;20029;-66
2022/05/23 01:03:26;;;;;;;7.13;2.40;;;;;;;-144.47;51.47;53301.03;5046890;28;20456;-68
2022/05/23 01:05:54;;;;;;;8.93;2.42;;;;;;;-144.47;51.76;53314.91;5050690;28;20055;-68
2022/05/23 01:08:20;;;;;;;8.10;2.80;;;;;;;-144.47;51.57;53306.97;5015150;28;20030;-68
2022/05/23 01:10:46;;;;;;;7.72;2.40;;;;;;;-144.47;51.69;53334.78;5037908;28;20033;-66
2022/05/23 01:13:11;;;;;;;7.57;2.63;;;;;;;-144.47;51.83;53271.22;5037343;28;20025;-70
2022/05/23 01:15:37;;;;;;;5.35;2.38;;;;;;;-144.47;51.89;53305.00;5039447;28;20051;-66
2022/05/23 01:18:03;;;;;;;7.45;2.78;;;;;;;-144.47;52.25;53299.03;5011292;28;20544;-66
2022/05/23 01:20:29;;;;;;;7.50;3.00;;;;;;;-144.47;52.46;53295.06;5006707;28;20109;-67
2022/05/23 01:23:06;;;;;;;7.80;2.50;;;;;;;-144.47;52.89;53314.91;5031227;28;20564;-65
2022/05/23 01:25:37;;;;;;;8.10;3.17;;;;;;;-144.47;52.96;53306.97;5050060;28;20515;-69
2022/05/23 01:28:03;;;;;;;5.82;2.60;;;;;;;-144.47;52.94;53324.84;5049994;28;20032;-69
2022/05/23 01:30:30;;;;;;;7.95;2.67;;;;;;;-144.47;53.21;53293.06;5036724;28;20017;-65
2022/05/23 01:32:55;;;;;;;7.75;2.60;;;;;;;-144.47;53.26;53324.84;5049907;28;20029;-69
2022/05/23 01:35:21;;;;;;;6.10;2.60;;;;;;;-144.47;53.29;53305.00;5050278;28;20021;-67
2022/05/23 01:37:46;;;;;;;6.68;2.30;;;;;;;-144.47;53.23;53291.09;5049692;28;20549;-65
2022/05/23 01:40:15;;;;;;;5.20;2.42;;;;;;;-144.47;53.56;53334.78;5049411;28;20033;-68
2022/05/23 01:42:41;;;;;;;8.57;2.80;;;;;;;-144.47;53.47;53306.97;5043533;28;20508;-66
2022/05/23 01:45:07;;;;;;;6.50;2.22;;;;;;;-144.47;53.56;53299.03;5029861;28;20039;-64
2022/05/23 01:47:33;;;;;;;12.23;3.10;;;;;;;-144.47;53.69;53338.75;5024248;28;20120;-66
2022/05/23 01:49:59;;;;;;;6.07;2.78;;;;;;;-144.47;53.67;53293.06;5029195;28;20108;-65
2022/05/23 01:52:24;;;;;;;10.55;2.78;;;;;;;-144.47;54.10;53283.13;5029197;28;20034;-67
2022/05/23 01:54:49;;;;;;;7.82;3.20;;;;;;;-144.47;53.96;53332.81;5032314;28;20404;-65
2022/05/23 01:57:14;;;;;;;10.43;2.75;;;;;;;-144.47;54.29;53308.97;5024669;28;20032;-66
2022/05/23 02:02:24;;;;;;;7.45;2.90;;;;;;;-144.47;54.00;53324.84;5027846;28;20028;-67
2022/05/23 02:04:51;;;;;;;6.75;2.63;;;;;;;-144.47;54.03;53324.84;5049355;28;20021;-66
2022/05/23 02:07:16;;;;;;;6.57;2.53;;;;;;;-144.47;54.13;53291.09;5032867;28;20079;-66
2022/05/23 02:09:42;;;;;;;8.13;2.85;;;;;;;-144.47;54.50;53271.22;5026750;28;20026;-67
2022/05/23 02:12:09;;;;;;;9.15;3.28;;;;;;;-144.47;54.49;53328.81;5030114;28;20396;-68
2022/05/23 02:14:35;;;;;;;7.18;2.90;;;;;;;-144.47;55.08;53320.88;5029627;28;20091;-68
2022/05/23 02:17:00;;;;;;;10.45;2.80;;;;;;;-144.47;54.73;53310.94;5029746;28;20469;-64
2022/05/23 02:19:26;;;;;;;7.15;2.85;;;;;;;-144.47;54.92;53312.94;5031711;28;20023;-67
2022/05/23 02:21:51;;;;;;;10.95;2.75;;;;;;;-144.47;55.09;53352.66;5049687;28;20021;-66
2022/05/23 02:24:17;;;;;;;14.23;4.30;;;;;;;-144.47;55.00;53326.84;5048561;28;20037;-68
2022/05/23 02:26:43;;;;;;;6.47;2.83;;;;;;;-144.47;54.65;53305.00;5047733;28;20100;-68
2022/05/23 02:29:10;;;;;;;6.82;2.88;;;;;;;-144.47;55.11;53297.03;5051235;28;20071;-65
2022/05/23 02:31:36;;;;;;;9.07;3.25;;;;;;;-144.47;55.30;53318.91;5040311;28;20025;-67
2022/05/23 02:34:01;;;;;;;9.55;3.50;;;;;;;-144.47;55.31;53340.75;5050169;28;20029;-65
2022/05/23 02:36:27;;;;;;;11.60;3.38;;;;;;;-144.47;55.82;53364.59;5053247;28;20021;-67
2022/05/23 02:38:53;;;;;;;10.20;3.00;;;;;;;-144.47;55.64;53320.88;5052254;28;20029;-69
2022/05/23 02:41:18;;;;;;;13.18;3.42;;;;;;;-144.47;55.81;53328.81;5031787;28;20083;-66
2022/05/23 02:43:44;;;;;;;8.82;2.85;;;;;;;-144.47;55.75;53293.06;5025671;28;20105;-68
2022/05/23 02:46:09;;;;;;;10.20;3.70;;;;;;;-144.47;55.92;53326.84;5024473;28;20041;-67
2022/05/23 02:48:35;;;;;;;13.57;3.00;;;;;;;-144.47;56.06;53285.13;5032708;28;20405;-68
2022/05/23 02:51:00;;;;;;;11.85;3.22;;;;;;;-144.47;56.26;53322.88;5033249;28;20412;-66
2022/05/23 02:53:25;;;;;;;8.52;3.08;;;;;;;-144.47;56.06;53360.63;5033821;28;20484;-68
2022/05/23 02:55:51;;;;;;;13.35;3.65;;;;;;;-144.47;56.23;53306.97;5042981;28;20029;-66
2022/05/23 02:58:17;;;;;;;10.50;3.53;;;;;;;-144.47;56.74;53322.88;5033119;28;20155;-68
2022/05/23 03:00:42;;;;;;;8.65;3.45;;;;;;;-144.47;56.40;53312.94;5042776;28;20074;-68
2022/05/23 03:03:08;;;;;;;8.45;3.15;;;;;;;-144.47;56.65;53316.91;5036546;28;20030;-66
2022/05/23 03:05:39;;;;;;;7.53;3.40;;;;;;;-144.47;56.99;53322.88;5031505;28;20022;-68
2022/05/23 03:08:05;;;;;;;6.75;3.00;;;;;;;-144.47;57.19;53362.59;5036086;28;20383;-68
2022/05/23 03:10:30;;;;;;;9.90;3.38;;;;;;;-144.47;57.20;53390.41;5047098;28;20487;-65
2022/05/23 03:12:56;;;;;;;14.30;3.60;;;;;;;-144.47;57.10;53334.78;5038953;28;20404;-67
2022/05/23 03:15:22;;;;;;;8.63;3.75;;;;;;;-144.47;57.03;53322.88;5052812;28;20040;-66
2022/05/23 03:17:47;;;;;;;7.25;3.13;;;;;;;-144.47;56.95;53336.78;5035597;28;20488;-67
2022/05/23 03:20:14;;;;;;;6.95;3.10;;;;;;;-144.47;56.92;53322.88;5027157;28;20039;-68
2022/05/23 03:28:08;;;;;;;8.82;3.40;;;;;;;-144.47;57.09;53324.84;5032771;28;20029;-68
2022/05/23 03:30:34;;;;;;;12.25;4.45;;;;;;;-144.47;57.22;53320.88;5042526;28;20017;-69
2022/05/23 03:33:00;;;;;;;13.38;4.18;;;;;;;-144.47;57.42;53301.03;5045569;28;20105;-68
2022/05/23 03:35:27;;;;;;;8.75;4.15;;;;;;;-144.47;57.44;53336.78;5045793;28;20089;-66
2022/05/23 03:37:52;;;;;;;10.82;3.78;;;;;;;-144.47;57.58;53368.56;5040258;28;20035;-66
2022/05/23 03:40:18;;;;;;;14.13;4.72;;;;;;;-144.47;57.49;53308.97;5037945;28;20026;-66
2022/05/23 03:42:44;;;;;;;7.00;3.53;;;;;;;-144.47;57.61;53318.91;5053185;28;20435;-67
2022/05/23 03:45:09;;;;;;;9.63;3.60;;;;;;;-144.47;57.57;53322.88;5049076;28;20040;-68
2022/05/23 03:47:35;;;;;;;7.45;3.90;;;;;;;-144.47;57.24;53342.72;5045484;28;20021;-65
2022/05/23 03:50:00;;;;;;;10.30;3.75;;;;;;;-144.47;57.21;53356.63;5045801;28;20017;-66
2022/05/23 03:52:26;;;;;;;14.15;3.75;;;;;;;-144.47;57.12;53364.59;5034523;28;20025;-67
2022/05/23 03:54:51;;;;;;;8.85;4.15;;;;;;;-144.47;57.09;53340.75;5051465;28;20041;-67
2022/05/23 03:57:16;;;;;;;6.03;3.25;;;;;;;-144.47;56.85;53326.84;5025785;28;20087;-68
2022/05/23 03:59:42;;;;;;;6.88;3.53;;;;;;;-144.47;56.79;53326.84;5030509;28;20056;-68
2022/05/23 04:02:07;;;;;;;10.40;3.40;;;;;;;-144.47;56.24;53342.72;5044418;28;20104;-68
2022/05/23 04:04:33;;;;;;;7.40;3.05;;;;;;;-144.47;55.72;53316.91;5026475;28;20028;-66
2022/05/23 04:07:00;;;;;;;8.02;3.08;;;;;;;-144.47;55.32;53314.91;5044314;28;20448;-66
2022/05/23 04:09:26;;;;;;;9.57;3.35;;;;;;;-144.47;55.18;53334.78;5034279;28;20439;-67
2022/05/23 04:11:51;;;;;;;6.82;3.33;;;;;;;-144.47;54.59;53299.03;5043712;28;20503;-66
2022/05/23 04:14:16;;;;;;;10.00;4.35;;;;;;;-144.47;54.50;53336.78;5026512;28;20033;-67
2022/05/23 04:16:46;;;;;;;11.23;3.80;;;;;;;-144.47;54.65;53301.03;5031161;28;20084;-68
2022/05/23 04:19:11;;;;;;;9.60;3.47;;;;;;;-144.47;54.31;53318.91;5044482;28;20029;-66
2022/05/23 04:21:41;;;;;;;12.07;3.50;;;;;;;-144.47;53.98;53332.81;5026060;28;20092;-68
2022/05/23 04:24:07;;;;;;;7.55;3.20;;;;;;;-144.47;53.77;53308.97;5010402;28;20082;-67
2022/05/23 04:26:32;;;;;;;7.15;3.33;;;;;;;-144.47;53.52;53322.88;5037640;28;20028;-68
2022/05/23 04:28:57;;;;;;;8.60;3.58;;;;;;;-144.47;53.29;53301.03;5032302;28;20031;-70
2022/05/23 04:31:22;;;;;;;11.05;2.90;;;;;;;-144.47;53.18;53306.97;5046583;28;20086;-65
2022/05/23 04:36:32;;;;;;;8.68;3.20;;;;;;;-144.47;53.11;53306.97;5029079;28;20032;-66
2022/05/23 04:38:57;;;;;;;8.80;2.83;;;;;;;-144.47;52.82;53299.03;5035926;28;20022;-68
2022/05/23 04:41:23;;;;;;;9.50;3.00;;;;;;;-144.47;52.49;53297.03;5017252;28;20133;-67
2022/05/23 04:43:49;;;;;;;5.60;2.90;;;;;;;-144.47;52.35;53332.81;4999941;28;20060;-66
2022/05/23 04:46:14;;;;;;;8.27;2.97;;;;;;;-144.47;51.90;53281.16;5031019;28;20021;-66
2022/05/23 04:51:23;;;;;;;10.07;3.25;;;;;;;-144.47;51.51;53306.97;5051176;28;20028;-67
2022/05/23 04:53:53;;;;;;;9.85;3.00;;;;;;;-144.47;51.84;53297.03;5019261;28;20032;-68
2022/05/23 04:56:22;;;;;;;7.28;3.97;;;;;;;-144.47;51.59;53285.13;5050619;28;20025;-67
2022/05/23 04:58:48;;;;;;;5.90;3.13;;;;;;;-144.47;51.47;53283.13;5037919;28;20017;-67
2022/05/23 05:01:13;;;;;;;8.98;3.25;;;;;;;-144.47;51.28;53297.03;5039721;28;20041;-68
2022/05/23 05:03:38;;;;;;;9.18;3.47;;;;;;;-144.47;51.15;53297.03;5048480;28;20099;-67
2022/05/23 05:06:04;;;;;;;5.43;2.65;;;;;;;-144.47;50.55;53247.38;5050962;28;20468;-67
2022/05/23 05:08:30;;;;;;;10.98;3.47;;;;;;;-144.47;50.77;53287.13;5014527;28;20021;-67
2022/05/23 05:10:59;;;;;;;16.02;3.47;;;;;;;-144.47;50.47;53332.81;5031062;28;20465;-68
2022/05/23 05:13:25;;;;;;;6.07;2.83;;;;;;;-144.47;50.30;53285.13;5019168;28;20087;-69
2022/05/23 05:15:51;;;;;;;9.55;2.72;;;;;;;-144.47;50.05;53303.00;5050313;28;20017;-67
2022/05/23 05:18:17;;;;;;;23.35;5.43;;;;;;;-144.47;49.67;53279.16;5038012;28;20405;-69
2022/05/23 05:20:42;;;;;;;12.57;3.47;;;;;;;-144.47;50.27;53308.97;5017205;28;20029;-67
2022/05/23 05:23:08;;;;;;;6.55;2.75;;;;;;;-144.47;49.64;53322.88;5034856;28;20027;-67
2022/05/23 05:25:34;;;;;;;20.08;3.67;;;;;;;-144.47;49.39;53277.19;5015387;28;20037;-68
2022/05/23 05:28:00;;;;;;;8.32;3.13;;;;;;;-144.47;49.01;53297.03;5042947;28;20091;-67
2022/05/23 05:30:25;;;;;;;8.55;2.97;;;;;;;-144.47;49.38;53245.41;5028084;28;20025;-67
2022/05/23 05:32:54;;;;;;;11.15;2.63;;;;;;;-144.47;49.64;53287.13;5017519;28;20412;-68
2022/05/23 05:35:27;;;;;;;9.88;3.08;;;;;;;-144.47;49.56;53267.25;5036790;28;20036;-67
2022/05/23 05:38:01;;;;;;;14.20;2.90;;;;;;;-144.47;49.22;53289.09;5042092;28;20029;-68
2022/05/23 05:40:29;;;;;;;10.43;3.03;;;;;;;-144.47;48.88;53301.03;5045681;28;20021;-68
2022/05/23 05:43:01;;;;;;;12.23;2.90;;;;;;;-144.47;48.61;53289.09;5041712;28;20107;-69
2022/05/23 05:46:00;;;;;;;9.73;2.83;;;;;;;-144.47;48.14;53283.13;5046413;28;20021;-69
2022/05/23 05:48:27;;;;;;;10.60;4.22;;;;;;;-144.47;48.23;53253.34;5017982;28;20021;-67
2022/05/23 05:50:53;;;;;;;18.00;4.72;;;;;;;-144.47;48.04;53295.06;5031159;28;20033;-67
2022/05/23 05:53:28;;;;;;;12.60;3.35;;;;;;;-144.47;47.87;53283.13;5028932;28;20052;-68
2022/05/23 05:55:53;;;;;;;6.97;2.70;;;;;;;-144.47;47.79;53265.25;5026817;28;20022;-68
2022/05/23 05:58:19;;;;;;;7.68;3.38;;;;;;;-144.47;47.62;53301.03;5018988;28;20032;-68
2022/05/23 06:00:45;;;;;;;7.55;2.85;;;;;;;-144.47;47.94;53281.16;5027976;28;20470;-67
2022/05/23 06:03:11;;;;;;;8.50;2.97;;;;;;;-144.47;47.74;53247.38;5028735;28;20477;-68
2022/05/23 06:13:52;;;;;;;13.30;2.50;;;;;;;-144.47;47.52;53279.16;5029907;28;20087;-67
2022/05/23 06:16:18;;;;;;;11.40;2.95;;;;;;;-144.47;47.35;53293.06;5032446;28;20420;-67
2022/05/23 06:18:44;;;;;;;11.60;2.80;;;;;;;-144.47;47.06;53263.28;5039569;28;20044;-67
2022/05/23 06:21:10;;;;;;;10.48;2.95;;;;;;;-144.47;46.41;53211.63;5029299;28;20045;-72
2022/05/23 06:23:36;;;;;;;16.48;2.88;;;;;;;-144.47;46.34;53247.38;5039821;28;20119;-66
2022/05/23 06:26:02;;;;;;;17.85;3.03;;;;;;;-144.47;46.44;53257.31;5048936;28;20025;-68
2022/05/23 06:28:27;;;;;;;12.98;3.05;;;;;;;-144.47;46.27;53279.16;5045592;28;20525;-67
2022/05/23 06:30:52;;;;;;;7.07;2.60;;;;;;;-144.47;46.34;53253.34;5035311;28;20029;-68
2022/05/23 06:33:18;;;;;;;11.45;3.00;;;;;;;-144.47;46.23;53237.44;5039936;28;20025;-68
2022/05/23 06:35:43;;;;;;;7.00;2.58;;;;;;;-144.47;45.95;53285.13;5029060;28;20022;-67
2022/05/23 06:38:08;;;;;;;10.32;2.63;;;;;;;-144.47;45.78;53233.47;5037458;28;20035;-68
2022/05/23 06:40:34;;;;;;;14.60;2.35;;;;;;;-144.47;46.23;53271.22;5023489;28;20021;-67
2022/05/23 06:43:01;;;;;;;10.93;2.58;;;;;;;-144.47;46.33;53229.50;5015844;28;20117;-68
2022/05/23 06:45:26;;;;;;;10.65;2.65;;;;;;;-144.47;46.38;53247.38;5019875;28;20527;-67
2022/05/23 06:47:52;;;;;;;12.85;2.80;;;;;;;-144.47;46.27;53207.66;5022443;28;20037;-65
2022/05/23 06:50:17;;;;;;;9.50;2.53;;;;;;;-144.47;46.10;53283.13;5022228;28;20149;-67
2022/05/23 06:52:42;;;;;;;9.80;2.92;;;;;;;-144.47;45.99;53237.44;5029224;28;20045;-67
2022/05/23 06:55:08;;;;;;;5.97;2.00;;;;;;;-144.47;45.58;53261.28;5062608;22;20045;-73
2022/05/23 06:57:33;;;;;;;6.82;2.03;;;;;;;-144.47;45.39;53249.38;5027903;28;20025;-74
2022/05/23 06:59:58;;;;;;;6.32;2.10;;;;;;;-144.47;44.77;53257.31;5021258;28;20068;-76
2022/05/23 07:02:24;;;;;;;7.07;2.33;;;;;;;-144.47;44.89;53241.44;5017810;28;20037;-75
2022/05/23 07:13:02;;;;;;;7.30;2.60;;;;;;;-144.47;43.86;53227.53;5011118;28;20086;-75
2022/05/23 07:15:27;;;;;;;7.22;1.92;;;;;;;-144.47;42.94;53243.41;5021498;28;20018;-76
2022/05/23 07:17:53;;;;;;;14.85;3.10;;;;;;;-144.47;43.12;53229.50;5023866;28;20434;-76
2022/05/23 07:20:18;;;;;;;5.30;2.00;;;;;;;-144.47;43.09;53233.47;5018544;28;20142;-73
2022/05/23 07:22:44;;;;;;;7.15;2.10;;;;;;;-144.47;42.59;53249.38;5010310;28;20033;-73
2022/05/23 07:25:09;;;;;;;8.25;2.42;;;;;;;-144.47;42.57;53209.66;5014354;28;20034;-75
2022/05/23 07:27:35;;;;;;;13.13;2.50;;;;;;;-144.47;42.37;53209.66;5021994;28;20648;-75
2022/05/23 07:30:00;;;;;;;10.20;2.00;;;;;;;-144.47;41.78;53225.53;5010843;28;20173;-74
2022/05/23 07:32:26;;;;;;;10.80;2.05;;;;;;;-144.47;41.99;53241.44;5025874;28;20030;-73
2022/05/23 07:34:51;;;;;;;5.53;2.00;;;;;;;-144.47;42.00;53209.66;5021927;28;20033;-75
2022/05/23 07:37:16;;;;;;;9.27;2.05;;;;;;;-144.47;41.95;53263.28;5019333;28;20095;-73
2022/05/23 07:39:42;;;;;;;12.32;2.75;;;;;;;-144.47;41.80;53243.41;5022956;28;20037;-73
2022/05/23 07:42:09;;;;;;;12.38;2.45;;;;;;;-144.47;42.13;53227.53;5011945;28;20040;-72
2022/05/23 07:44:35;;;;;;;7.15;2.22;;;;;;;-144.47;41.40;53187.78;5009219;28;20026;-73
2022/05/23 07:47:01;;;;;;;10.10;2.35;;;;;;;-144.47;41.49;53231.50;5014499;28;20116;-73
2022/05/23 07:49:26;;;;;;;9.90;2.05;;;;;;;-144.47;41.50;53199.72;5022963;28;20021;-74
2022/05/23 07:51:55;;;;;;;6.53;1.77;;;;;;;-144.47;41.85;53215.59;5011866;28;20022;-74
2022/05/23 08:02:32;;;;;;;8.20;1.88;;;;;;;-144.47;41.00;53179.84;5010938;28;20064;-73
2022/05/23 08:04:58;;;;;;;9.18;2.33;;;;;;;-144.47;41.24;53189.78;5012212;28;20433;-73
2022/05/23 08:07:28;;;;;;;18.38;2.08;;;;;;;-144.47;41.43;53209.66;5011986;28;20021;-72
2022/05/23 08:09:54;;;;;;;15.52;1.80;;;;;;;-144.47;41.83;53211.63;5018131;28;20074;-73
2022/05/23 08:12:19;;;;;;;9.70;2.15;;;;;;;-144.47;42.12;53201.69;5022328;28;20068;-73
2022/05/23 08:14:44;;;;;;;7.70;2.25;;;;;;;-144.47;42.02;53227.53;5027559;28;20167;-73
2022/05/23 08:17:10;;;;;;;6.00;2.28;;;;;;;-144.47;42.02;53205.66;5022574;28;20026;-72
2022/05/23 08:19:36;;;;;;;11.48;2.30;;;;;;;-144.47;42.05;53231.50;5027255;28;20403;-72
2022/05/23 08:22:01;;;;;;;7.18;2.28;;;;;;;-144.47;41.79;53205.66;5012269;28;20092;-73
2022/05/23 08:24:26;;;;;;;11.43;2.38;;;;;;;-144.47;41.86;53237.44;5012316;28;20069;-71
2022/05/23 08:26:53;;;;;;;9.27;2.20;;;;;;;-144.47;41.28;53199.72;5012246;28;20034;-74
2022/05/23 08:29:18;;;;;;;9.68;2.38;;;;;;;-144.47;41.11;53193.75;5025690;28;20087;-73
2022/05/23 08:31:44;;;;;;;11.93;2.13;;;;;;;-144.47;40.86;53215.59;5012139;28;20120;-73
2022/05/23 08:34:09;;;;;;;7.93;2.28;;;;;;;-144.47;40.85;53221.56;5025386;28;20045;-71
2022/05/23 08:36:35;;;;;;;9.45;2.08;;;;;;;-144.47;41.15;53199.72;5022761;28;20060;-70
2022/05/23 08:39:02;;;;;;;5.72;1.90;;;;;;;-144.47;41.13;53209.66;5015319;28;20022;-73
2022/05/23 08:41:41;;;;;;;14.82;2.67;;;;;;;-144.47;41.33;53227.53;5010873;28;20105;-73
2022/05/23 08:44:36;;;;;;;17.65;2.72;;;;;;;-144.47;41.11;53197.72;5012490;28;20051;-73
2022/05/23 08:47:06;;;;;;;12.10;2.08;;;;;;;-144.47;40.62;53229.50;5009504;28;20037;-74
2022/05/23 08:49:45;;;;;;;6.57;2.00;;;;;;;-144.47;40.65;53217.59;5004334;28;20057;-70
2022/05/23 08:52:13;;;;;;;7.60;2.22;;;;;;;-144.47;40.87;53201.69;5008275;28;20113;-71
2022/05/23 08:54:54;;;;;;;6.65;2.38;;;;;;;-144.47;40.75;53229.50;5004858;28;20040;-73
2022/05/23 08:57:50;;;;;;;9.23;2.50;;;;;;;-144.47;40.96;53193.75;5003888;28;20041;-73
2022/05/23 09:00:20;;;;;;;7.47;2.13;;;;;;;-144.47;40.74;53205.66;5006875;28;20041;-73
2022/05/23 09:02:57;;;;;;;13.55;2.60;;;;;;;-144.47;40.46;53187.78;5007751;28;20038;-73
2022/05/23 09:05:32;;;;;;;8.27;1.92;;;;;;;-144.47;40.58;53146.09;5004560;28;20595;-72
2022/05/23 09:08:05;;;;;;;12.65;3.65;;;;;;;-144.47;40.35;53185.81;5005091;28;20030;-73
2022/05/23 09:10:43;;;;;;;9.93;2.45;;;;;;;-144.47;40.06;53173.88;5004223;28;20022;-73
2022/05/23 09:13:09;;;;;;;5.80;1.90;;;;;;;-144.47;40.01;53163.97;5007376;28;20038;-71
2022/05/23 09:15:35;;;;;;;9.57;2.47;;;;;;;-144.47;40.22;53217.59;5006191;28;20231;-71
2022/05/23 09:18:10;;;;;;;17.75;2.30;;;;;;;-144.47;40.48;53185.81;5006030;28;20077;-72
2022/05/23 09:20:46;;;;;;;8.15;2.17;;;;;;;-144.47;39.55;53211.63;5008999;28;20040;-70
2022/05/23 09:23:47;;;;;;;13.70;2.20;;;;;;;-144.47;39.80;53169.91;5006958;28;20034;-71
2022/05/23 09:26:21;;;;;;;5.60;2.17;;;;;;;-144.47;40.04;53187.78;5005369;28;20138;-72
2022/05/23 09:28:50;;;;;;;5.88;2.15;;;;;;;-144.47;40.27;53203.69;5007642;28;20095;-72
2022/05/23 09:31:38;;;;;;;6.75;2.40;;;;;;;-144.47;40.58;53203.69;5005324;28;20034;-72
2022/05/23 09:34:04;;;;;;;7.72;2.35;;;;;;;-144.47;40.53;53191.78;5006016;28;20103;-74
2022/05/23 09:36:40;;;;;;;13.82;3.03;;;;;;;-144.47;40.19;53132.19;5004619;28;20029;-71
2022/05/23 09:39:10;;;;;;;6.45;2.20;;;;;;;-144.47;40.02;53193.75;5006644;28;20038;-72
2022/05/23 09:49:57;;;;;;;8.55;2.28;;;;;;;-144.47;40.85;53150.06;5006950;28;20566;-73
2022/05/23 09:52:27;;;;;;;7.10;2.15;;;;;;;-144.47;41.35;53199.72;5005433;28;20018;-74
2022/05/23 09:55:00;;;;;;;12.02;2.97;;;;;;;-144.47;40.80;53173.88;5001216;28;20050;-72
2022/05/23 09:57:32;;;;;;;6.07;2.28;;;;;;;-144.47;40.76;53215.59;5003426;28;20022;-73
2022/05/23 10:00:03;;;;;;;12.07;2.20;;;;;;;-144.47;40.51;53221.56;5003436;28;20056;-71
2022/05/23 10:02:28;;;;;;;7.97;2.17;;;;;;;-144.47;40.59;53193.75;5002079;28;20444;-74
2022/05/23 10:04:54;;;;;;;7.63;2.50;;;;;;;-144.47;40.51;53154.03;5001878;28;20030;-72
2022/05/23 10:07:29;;;;;;;7.80;2.22;;;;;;;-144.47;40.67;53201.69;5004391;28;20275;-71
2022/05/23 10:10:04;;;;;;;7.45;2.10;;;;;;;-144.47;40.87;53173.88;5003538;28;20093;-72
2022/05/23 10:12:32;;;;;;;14.95;2.22;;;;;;;-144.47;40.85;53175.88;5003636;28;20144;-74
2022/05/23 10:15:12;;;;;;;4.97;2.03;;;;;;;-144.47;39.87;53167.94;5002506;28;20022;-73
2022/05/23 10:17:40;;;;;;;7.45;2.60;;;;;;;-144.47;39.43;53205.66;5002853;28;20037;-73
2022/05/23 10:20:18;;;;;;;;;;;;;;;-144.47;39.68;53207.66;5003809;28;20034;-74
2022/05/23 10:22:56;;;;;;;15.32;2.53;;;;;;;-144.47;39.99;53130.19;5002806;28;19917;-75
2022/05/23 10:25:21;;;;;;;8.95;2.03;;;;;;;-144.47;39.81;53142.09;4999216;28;20034;-74
2022/05/23 10:28:07;;;;;;;8.35;1.90;;;;;;;-144.47;39.76;53179.84;5001962;28;20038;-72
2022/05/23 10:30:36;;;;;;;17.90;2.30;;;;;;;-144.47;39.29;53183.81;5002920;28;20029;-72
2022/05/23 10:33:08;;;;;;;11.35;2.40;;;;;;;-144.47;38.94;53167.94;5003441;28;20097;-73
2022/05/23 10:35:36;;;;;;;7.82;2.10;;;;;;;-144.47;38.99;53169.91;5002866;28;20026;-74
2022/05/23 10:44:08;;;;;;;8.93;2.13;;;;;;;-144.47;38.45;53181.84;5002919;28;20115;-72
2022/05/23 10:46:36;;;;;;;7.40;2.22;;;;;;;-144.47;38.74;53160.00;5000353;28;20473;-72
2022/05/23 10:49:20;;;;;;;10.05;2.75;;;;;;;-144.47;37.81;53175.88;5002085;28;20025;-71
2022/05/23 10:52:03;;;;;;;7.65;1.85;;;;;;;-144.47;37.65;53154.03;5009594;28;20029;-72
2022/05/23 10:54:56;;;;;;;8.27;2.30;;;;;;;-144.47;36.84;53156.00;5006986;28;20061;-74
2022/05/23 10:57:51;;;;;;;5.50;1.95;;;;;;;-144.47;37.05;53152.03;5006653;28;20569;-72
2022/05/23 11:00:22;;;;;;;10.10;2.40;;;;;;;-144.47;36.34;53169.91;5012438;28;20512;-74
2022/05/23 11:03:04;;;;;;;8.80;2.10;;;;;;;-144.47;36.16;53185.81;5007208;28;20037;-73
2022/05/23 11:05:37;;;;;;;10.77;2.17;;;;;;;-144.47;35.52;53140.13;5005488;28;20030;-74
2022/05/23 11:08:08;;;;;;;9.68;2.20;;;;;;;-144.47;35.10;53152.03;5006404;28;20013;-70
2022/05/23 11:10:34;;;;;;;6.72;2.00;;;;;;;-144.47;35.09;53126.22;5005395;28;20080;-69
2022/05/23 11:13:14;;;;;;;5.43;1.70;;;;;;;-144.47;35.01;53177.88;5004211;28;20041;-71
2022/05/23 11:15:51;;;;;;;12.52;2.80;;;;;;;-144.47;34.69;53112.31;5003652;28;20041;-69
2022/05/23 11:18:31;;;;;;;10.20;2.30;;;;;;;-144.47;34.86;53140.13;5006582;28;20038;-70
2022/05/23 11:21:19;;;;;;;14.88;2.38;;;;;;;-144.47;34.72;53112.31;5005737;28;20022;-70
2022/05/23 11:23:50;;;;;;;8.02;2.22;;;;;;;-144.47;35.01;53118.28;5006171;28;20539;-71
2022/05/23 11:26:31;;;;;;;4.20;1.73;;;;;;;-144.47;35.38;53158.00;5003258;28;20030;-72
2022/05/23 11:34:46;;;;;;;12.52;2.22;;;;;;;-144.47;34.52;53152.03;5006641;28;20117;-72
2022/05/23 11:39:59;;;;;;;10.48;2.38;;;;;;;-144.47;34.27;53122.25;5007454;28;20025;-71
2022/05/23 11:42:53;;;;;;;5.68;2.10;;;;;;;-144.47;34.48;53152.03;5012763;28;20037;-69
2022/05/23 11:48:38;;;;;;;8.32;2.20;;;;;;;-144.47;34.86;53144.09;5025659;28;20055;-70
2022/05/23 11:51:15;;;;;;;9.73;2.55;;;;;;;-144.47;35.25;53128.22;4999597;28;20018;-70
2022/05/23 11:53:46;;;;;;;9.30;2.35;;;;;;;-144.47;35.19;53152.03;5012770;28;20100;-71
2022/05/23 11:56:37;;;;;;;12.63;2.65;;;;;;;-144.47;34.77;53140.13;5007471;28;20026;-71
2022/05/23 11:59:04;;;;;;;12.77;2.45;;;;;;;-144.47;34.81;53167.94;5001620;28;20034;-73
2022/05/23 12:01:30;;;;;;;7.05;2.05;;;;;;;-144.47;34.39;53142.09;5008002;28;20160;-74
2022/05/23 12:03:58;;;;;;;5.70;2.20;;;;;;;-144.47;34.09;53138.13;5011143;28;20080;-74
2022/05/23 12:06:23;;;;;;;7.18;2.33;;;;;;;-144.47;34.35;53118.28;5008958;28;20021;-71
2022/05/23 12:08:57;;;;;;;13.75;2.78;;;;;;;-144.47;34.43;53150.06;5008696;28;20036;-72
2022/05/23 12:11:24;;;;;;;6.88;2.33;;;;;;;-144.47;34.18;53122.25;5010309;28;20481;-72
2022/05/23 12:13:51;;;;;;;8.25;2.30;;;;;;;-144.47;33.94;53146.09;5011340;28;20469;-71
2022/05/23 12:16:35;;;;;;;8.77;2.42;;;;;;;-144.47;33.28;53094.44;5011159;28;20146;-72
2022/05/23 12:19:39;;;;;;;17.00;2.30;;;;;;;-144.47;33.34;53106.34;5012794;28;20034;-71
2022/05/23 12:22:27;;;;;;;5.90;1.98;;;;;;;-144.47;33.40;53082.53;4996943;28;20045;-72
2022/05/23 12:25:08;;;;;;;5.68;2.10;;;;;;;-144.47;33.30;53090.47;5019013;28;20404;-71
2022/05/23 12:27:39;;;;;;;13.02;2.53;;;;;;;-144.47;33.23;53070.59;5022588;28;20049;-71
2022/05/23 12:30:24;;;;;;;9.93;2.10;;;;;;;-144.47;31.12;53064.66;5021749;28;20024;-72